createdAt,value
2022-10-30T00:00:28.974Z,100685.7
2022-10-30T00:02:33.456Z,100681.62
2022-10-30T00:04:37.958Z,100681.44
2022-10-30T00:06:42.387Z,100682.05
2022-10-30T00:08:46.725Z,100679.54
2022-10-30T00:10:51.185Z,100679.27
2022-10-30T00:12:55.633Z,100685.73
2022-10-30T00:14:59.993Z,100680.66
2022-10-30T00:17:04.332Z,100676.67
2022-10-30T00:19:08.724Z,100681.48
2022-10-30T00:21:13.118Z,100679.98
2022-10-30T00:23:17.462Z,100673.27
2022-10-30T00:25:21.957Z,100669.93
2022-10-30T00:27:26.327Z,100670.3
2022-10-30T00:29:30.692Z,100672.01
2022-10-30T00:31:35.042Z,100669.76
2022-10-30T00:33:39.446Z,100668.73
2022-10-30T00:35:43.916Z,100668.13
2022-10-30T00:37:48.399Z,100665.77
2022-10-30T00:39:52.763Z,100669.69
2022-10-30T00:41:57.113Z,100659.3
2022-10-30T00:44:01.485Z,100661.2
2022-10-30T00:46:05.886Z,100660.28
2022-10-30T00:48:10.279Z,100658.45
2022-10-30T00:50:14.884Z,100657.8
2022-10-30T00:52:19.494Z,100659.53
2022-10-30T00:54:23.836Z,100656.2
2022-10-30T00:56:28.280Z,100654.16
2022-10-30T00:58:32.673Z,100656.84
2022-10-30T01:00:37.016Z,100653.06
2022-10-30T01:02:41.756Z,100650.23
2022-10-30T01:04:46.259Z,100648.5
2022-10-30T01:06:50.608Z,100638.89
2022-10-30T01:09:01.064Z,100641.82
2022-10-30T01:11:05.561Z,100636.67
2022-10-30T01:13:10.007Z,100634.22
2022-10-30T01:15:14.356Z,100627.64
2022-10-30T01:17:18.843Z,100624.34
2022-10-30T01:19:23.307Z,100627.95
2022-10-30T01:21:27.631Z,100629.97
2022-10-30T01:23:32.020Z,100640.87
2022-10-30T01:25:36.395Z,100643.94
2022-10-30T01:27:40.726Z,100642.23
2022-10-30T01:29:45.082Z,100648.22
2022-10-30T01:31:49.421Z,100644.17
2022-10-30T01:33:53.777Z,100641.55
2022-10-30T01:35:58.118Z,100639.09
2022-10-30T01:38:02.896Z,100643.08
2022-10-30T01:40:07.264Z,100638.55
2022-10-30T01:42:11.582Z,100632.34
2022-10-30T01:44:15.937Z,100628.94
2022-10-30T01:46:20.255Z,100636.84
2022-10-30T01:48:24.618Z,100643.42
2022-10-30T01:50:28.989Z,100641.48
2022-10-30T01:52:33.331Z,100649.25
2022-10-30T01:54:37.710Z,100650
2022-10-30T01:56:42.096Z,100643.93
2022-10-30T01:58:46.427Z,100644.68
2022-10-30T02:00:50.792Z,100648.3
2022-10-30T02:02:55.771Z,100638.41
2022-10-30T02:05:00.998Z,100646.76
2022-10-30T02:07:05.350Z,100644.98
2022-10-30T02:09:09.689Z,100645.36
2022-10-30T02:11:14.105Z,100646.69
2022-10-30T02:13:18.464Z,100647.88
2022-10-30T02:15:22.849Z,100645.88
2022-10-30T02:17:27.327Z,100645.67
2022-10-30T02:19:31.667Z,100646.31
2022-10-30T02:21:36.045Z,100644
2022-10-30T02:23:40.372Z,100648.33
2022-10-30T02:25:44.706Z,100656.91
2022-10-30T02:27:49.074Z,100651.9
2022-10-30T02:29:53.416Z,100653.91
2022-10-30T02:31:57.804Z,100657.97
2022-10-30T02:34:02.171Z,100652.85
2022-10-30T02:36:06.666Z,100645.45
2022-10-30T02:38:11.015Z,100639.88
2022-10-30T02:40:15.338Z,100632.59
2022-10-30T02:42:19.708Z,100633.77
2022-10-30T02:44:24.041Z,100639.88
2022-10-30T02:46:28.405Z,100635.44
2022-10-30T02:48:33.191Z,100632.1
2022-10-30T02:50:37.525Z,100630.06
2022-10-30T02:52:41.900Z,100631.02
2022-10-30T02:54:46.251Z,100628.73
2022-10-30T02:56:50.634Z,100625.36
2022-10-30T02:58:55.037Z,100629.23
2022-10-30T03:00:59.488Z,100629.58
2022-10-30T03:03:03.938Z,100629.58
2022-10-30T03:05:08.349Z,100628.02
2022-10-30T03:07:12.808Z,100623.89
2022-10-30T03:09:17.165Z,100628.52
2022-10-30T03:11:21.484Z,100629.84
2022-10-30T03:13:25.863Z,100629.47
2022-10-30T03:15:30.210Z,100632.03
2022-10-30T03:17:34.713Z,100625.34
2022-10-30T03:19:39.207Z,100623.44
2022-10-30T03:21:43.535Z,100621.81
2022-10-30T03:23:47.888Z,100624.63
2022-10-30T03:25:52.241Z,100630.36
2022-10-30T03:27:57.405Z,100631.68
2022-10-30T03:30:02.353Z,100631.52
2022-10-30T03:32:06.688Z,100633.08
2022-10-30T03:34:11.017Z,100628.75
2022-10-30T03:36:15.459Z,100632.5
2022-10-30T03:38:19.826Z,100628.65
2022-10-30T03:40:24.144Z,100629.02
2022-10-30T03:42:28.503Z,100629.94
2022-10-30T03:44:32.846Z,100629.23
2022-10-30T03:46:37.172Z,100633
2022-10-30T03:48:41.542Z,100636.17
2022-10-30T03:50:45.865Z,100632.8
2022-10-30T03:52:50.222Z,100625.69
2022-10-30T03:54:54.572Z,100624.56
2022-10-30T03:56:58.961Z,100623.06
2022-10-30T03:59:03.306Z,100624.66
2022-10-30T04:01:07.829Z,100626.88
2022-10-30T04:03:12.357Z,100626.53
2022-10-30T04:05:16.820Z,100631.81
2022-10-30T04:07:21.149Z,100631.7
2022-10-30T04:09:25.509Z,100632.18
2022-10-30T04:11:30.112Z,100626.13
2022-10-30T04:13:34.591Z,100622.23
2022-10-30T04:15:38.942Z,100614.98
2022-10-30T04:17:43.275Z,100614.27
2022-10-30T04:19:47.769Z,100608.59
2022-10-30T04:21:52.082Z,100606.44
2022-10-30T04:23:56.530Z,100607.8
2022-10-30T04:26:00.870Z,100608.24
2022-10-30T04:28:05.244Z,100607.02
2022-10-30T04:30:09.614Z,100606.91
2022-10-30T04:32:13.980Z,100607.42
2022-10-30T04:34:18.398Z,100604.87
2022-10-30T04:36:22.761Z,100602.93
2022-10-30T04:38:27.133Z,100603.3
2022-10-30T04:40:31.540Z,100600.23
2022-10-30T04:42:36.070Z,100599.25
2022-10-30T04:44:40.421Z,100603.33
2022-10-30T04:46:44.762Z,100602.24
2022-10-30T04:48:49.168Z,100601.12
2022-10-30T04:50:53.519Z,100601.56
2022-10-30T04:52:57.983Z,100603.81
2022-10-30T04:55:02.350Z,100601.83
2022-10-30T04:57:06.721Z,100607.28
2022-10-30T04:59:11.072Z,100605.78
2022-10-30T05:01:15.698Z,100599.95
2022-10-30T05:03:20.210Z,100599.41
2022-10-30T05:05:24.619Z,100600.5
2022-10-30T05:07:28.946Z,100594.61
2022-10-30T05:09:33.387Z,100590.05
2022-10-30T05:11:37.711Z,100591.61
2022-10-30T05:13:42.079Z,100592.63
2022-10-30T05:15:46.406Z,100591.84
2022-10-30T05:17:50.775Z,100590.86
2022-10-30T05:19:55.248Z,100588.23
2022-10-30T05:21:59.590Z,100584.89
2022-10-30T05:24:03.966Z,100586.46
2022-10-30T05:26:11.633Z,100595.27
2022-10-30T05:28:16.413Z,100594.56
2022-10-30T05:30:20.758Z,100594.77
2022-10-30T05:32:25.112Z,100594.88
2022-10-30T05:34:29.478Z,100597.69
2022-10-30T05:36:33.855Z,100597.69
2022-10-30T05:38:38.178Z,100602.02
2022-10-30T05:40:42.582Z,100600.62
2022-10-30T05:42:47.011Z,100598.52
2022-10-30T05:45:06.779Z,100599.8
2022-10-30T05:47:11.308Z,100599.3
2022-10-30T05:49:15.670Z,100603.45
2022-10-30T05:51:20.038Z,100603.45
2022-10-30T05:53:24.393Z,100609.91
2022-10-30T05:55:28.791Z,100604.44
2022-10-30T05:57:33.732Z,100604.47
2022-10-30T05:59:38.114Z,100604.91
2022-10-30T06:01:45.786Z,100604.3
2022-10-30T06:03:50.521Z,100605.27
2022-10-30T06:05:54.903Z,100604.45
2022-10-30T06:07:59.242Z,100610.52
2022-10-30T06:10:03.611Z,100614.19
2022-10-30T06:12:07.982Z,100620.53
2022-10-30T06:14:12.343Z,100618.72
2022-10-30T06:16:16.737Z,100620.26
2022-10-30T06:18:21.191Z,100614.03
2022-10-30T06:20:25.537Z,100611.55
2022-10-30T06:22:29.909Z,100617.27
2022-10-30T06:24:34.249Z,100616.81
2022-10-30T06:26:38.629Z,100617.36
2022-10-30T06:28:42.966Z,100622.16
2022-10-30T06:30:47.340Z,100623.4
2022-10-30T06:32:51.831Z,100626.92
2022-10-30T06:34:56.183Z,100628.02
2022-10-30T06:37:00.746Z,100633.3
2022-10-30T06:39:05.221Z,100630
2022-10-30T06:41:09.654Z,100633.92
2022-10-30T06:43:14.009Z,100635.42
2022-10-30T06:45:18.339Z,100637.87
2022-10-30T06:47:22.703Z,100634.56
2022-10-30T06:49:27.047Z,100639.59
2022-10-30T06:51:31.416Z,100639.22
2022-10-30T06:53:35.740Z,100640.62
2022-10-30T06:55:40.171Z,100638.02
2022-10-30T06:57:44.503Z,100641.8
2022-10-30T06:59:48.869Z,100646.2
2022-10-30T07:01:59.223Z,100646.23
2022-10-30T07:04:08.937Z,100645.39
2022-10-30T07:06:13.303Z,100643.39
2022-10-30T07:08:17.644Z,100643.28
2022-10-30T07:10:22.013Z,100647.28
2022-10-30T07:12:26.405Z,100653.17
2022-10-30T07:14:30.768Z,100658.75
2022-10-30T07:16:35.161Z,100665.26
2022-10-30T07:18:39.498Z,100662.19
2022-10-30T07:20:43.953Z,100666.52
2022-10-30T07:22:48.300Z,100657.35
2022-10-30T07:24:52.643Z,100654.28
2022-10-30T07:26:57.015Z,100654.03
2022-10-30T07:29:01.398Z,100657.8
2022-10-30T07:31:05.749Z,100663.11
2022-10-30T07:33:10.112Z,100667.87
2022-10-30T07:35:14.467Z,100666.03
2022-10-30T07:37:18.850Z,100663.22
2022-10-30T07:39:23.191Z,100667.85
2022-10-30T07:41:27.567Z,100671.38
2022-10-30T07:43:31.949Z,100675.3
2022-10-30T07:45:36.281Z,100669.09
2022-10-30T07:47:40.642Z,100664.59
2022-10-30T07:49:44.971Z,100658.3
2022-10-30T07:51:49.287Z,100654.45
2022-10-30T07:53:53.675Z,100657.48
2022-10-30T07:55:58.041Z,100656.02
2022-10-30T07:58:02.990Z,100655.7
2022-10-30T08:00:07.376Z,100656.8
2022-10-30T08:02:12.208Z,100656.36
2022-10-30T08:04:16.937Z,100662.22
2022-10-30T08:06:26.980Z,100666.59
2022-10-30T08:08:31.812Z,100662.51
2022-10-30T08:10:36.166Z,100653.59
2022-10-30T08:12:40.530Z,100655.82
2022-10-30T08:14:44.844Z,100662.13
2022-10-30T08:16:49.180Z,100654.34
2022-10-30T08:18:53.566Z,100655.47
2022-10-30T08:20:57.978Z,100653.16
2022-10-30T08:23:03.265Z,100651.22
2022-10-30T08:25:07.674Z,100648.7
2022-10-30T08:27:12.021Z,100645.57
2022-10-30T08:29:16.540Z,100645.61
2022-10-30T08:31:20.887Z,100651.53
2022-10-30T08:33:25.248Z,100649.52
2022-10-30T08:35:29.726Z,100640.54
2022-10-30T08:37:34.175Z,100638.43
2022-10-30T08:39:38.586Z,100635.44
2022-10-30T08:41:42.980Z,100632.1
2022-10-30T08:43:47.354Z,100628.49
2022-10-30T08:45:51.688Z,100632
2022-10-30T08:47:56.698Z,100631.19
2022-10-30T08:50:01.885Z,100635
2022-10-30T08:52:06.235Z,100636.8
2022-10-30T08:54:10.617Z,100638.84
2022-10-30T08:56:15.010Z,100637.73
2022-10-30T08:58:19.363Z,100636.77
2022-10-30T09:00:23.790Z,100635.55
2022-10-30T09:02:28.371Z,100636.57
2022-10-30T09:04:33.733Z,100627.41
2022-10-30T09:06:38.074Z,100630.58
2022-10-30T09:08:42.418Z,100628.67
2022-10-30T09:10:46.813Z,100632.66
2022-10-30T09:12:51.219Z,100630.3
2022-10-30T09:14:55.557Z,100634.02
2022-10-30T09:16:59.954Z,100633.16
2022-10-30T09:19:04.295Z,100640.12
2022-10-30T09:21:08.650Z,100638.89
2022-10-30T09:23:13.031Z,100641.07
2022-10-30T09:25:17.419Z,100632.69
2022-10-30T09:27:21.799Z,100629.76
2022-10-30T09:29:26.195Z,100631.56
2022-10-30T09:31:30.561Z,100631.63
2022-10-30T09:33:34.915Z,100632.96
2022-10-30T09:35:39.264Z,100629.55
2022-10-30T09:37:43.678Z,100628.08
2022-10-30T09:39:48.030Z,100630.88
2022-10-30T09:41:52.412Z,100624.13
2022-10-30T09:43:56.792Z,100620.3
2022-10-30T09:46:01.186Z,100620.06
2022-10-30T09:48:05.518Z,100621.2
2022-10-30T09:50:09.843Z,100618.67
2022-10-30T09:52:14.197Z,100609.12
2022-10-30T09:54:18.596Z,100600.08
2022-10-30T09:56:22.968Z,100603.41
2022-10-30T09:58:27.302Z,100596.69
2022-10-30T10:00:31.678Z,100595.34
2022-10-30T10:02:36.568Z,100589.73
2022-10-30T10:04:41.320Z,100587.74
2022-10-30T10:06:45.698Z,100587.66
2022-10-30T10:08:50.033Z,100586.96
2022-10-30T10:10:54.404Z,100590.22
2022-10-30T10:13:02.342Z,100588.14
2022-10-30T10:15:07.669Z,100591.88
2022-10-30T10:17:12.081Z,100587.94
2022-10-30T10:19:16.426Z,100586.25
2022-10-30T10:21:20.785Z,100584.25
2022-10-30T10:23:25.122Z,100581.98
2022-10-30T10:25:29.442Z,100585.8
2022-10-30T10:27:33.807Z,100585.6
2022-10-30T10:29:38.172Z,100586.5
2022-10-30T10:31:42.505Z,100582.01
2022-10-30T10:33:46.892Z,100582.09
2022-10-30T10:35:53.610Z,100585.68
2022-10-30T10:37:58.928Z,100587.39
2022-10-30T10:40:04.106Z,100588.35
2022-10-30T10:42:08.450Z,100582.11
2022-10-30T10:44:12.844Z,100576.81
2022-10-30T10:46:17.194Z,100580.18
2022-10-30T10:48:21.584Z,100578.61
2022-10-30T10:50:25.939Z,100571.59
2022-10-30T10:52:30.273Z,100575.88
2022-10-30T10:54:34.645Z,100569.08
2022-10-30T10:56:38.971Z,100562.06
2022-10-30T10:58:43.347Z,100554
2022-10-30T11:00:47.751Z,100556.84
2022-10-30T11:02:52.162Z,100558.53
2022-10-30T11:04:56.560Z,100559.49
2022-10-30T11:07:00.937Z,100560.75
2022-10-30T11:09:05.300Z,100565.31
2022-10-30T11:11:09.717Z,100557.71
2022-10-30T11:13:14.086Z,100561.74
2022-10-30T11:15:18.463Z,100557.05
2022-10-30T11:17:22.830Z,100555.98
2022-10-30T11:19:27.219Z,100558.34
2022-10-30T11:21:31.624Z,100562.88
2022-10-30T11:23:36.005Z,100555.31
2022-10-30T11:25:40.390Z,100555.97
2022-10-30T11:27:44.782Z,100554.5
2022-10-30T11:29:49.196Z,100554.55
2022-10-30T11:31:53.623Z,100555.59
2022-10-30T11:33:57.962Z,100558
2022-10-30T11:36:02.316Z,100551.2
2022-10-30T11:38:06.712Z,100544.66
2022-10-30T11:40:11.093Z,100545.9
2022-10-30T11:42:15.531Z,100544.88
2022-10-30T11:44:19.905Z,100546.52
2022-10-30T11:46:24.290Z,100550.82
2022-10-30T11:48:28.623Z,100548.33
2022-10-30T11:50:33.125Z,100547.59
2022-10-30T11:52:37.520Z,100539.3
2022-10-30T11:54:41.878Z,100539.56
2022-10-30T11:56:46.282Z,100534.61
2022-10-30T11:58:50.738Z,100537.2
2022-10-30T12:00:55.078Z,100537.61
2022-10-30T12:03:00.481Z,100543.22
2022-10-30T12:05:05.526Z,100540.5
2022-10-30T12:07:09.864Z,100540.31
2022-10-30T12:09:14.248Z,100543.52
2022-10-30T12:11:18.617Z,100539.59
2022-10-30T12:13:22.968Z,100540.73
2022-10-30T12:15:27.307Z,100539.11
2022-10-30T12:17:31.677Z,100535.19
2022-10-30T12:19:36.010Z,100531.1
2022-10-30T12:21:40.344Z,100527.77
2022-10-30T12:23:44.740Z,100526.8
2022-10-30T12:25:49.067Z,100527.69
2022-10-30T12:27:53.447Z,100528.22
2022-10-30T12:30:10.108Z,100524.9
2022-10-30T12:32:16.186Z,100526.65
2022-10-30T12:34:20.572Z,100520.64
2022-10-30T12:36:24.918Z,100522.02
2022-10-30T12:38:29.314Z,100521.27
2022-10-30T12:40:33.878Z,100517.99
2022-10-30T12:42:38.205Z,100512.87
2022-10-30T12:44:42.603Z,100515.14
2022-10-30T12:46:46.998Z,100514.63
2022-10-30T12:48:51.316Z,100510.74
2022-10-30T12:50:55.669Z,100512.33
2022-10-30T12:53:01.156Z,100511.19
2022-10-30T12:55:06.068Z,100510.52
2022-10-30T12:57:10.399Z,100516.17
2022-10-30T12:59:14.809Z,100518.38
2022-10-30T13:01:19.397Z,100521.66
2022-10-30T13:03:23.963Z,100521.41
2022-10-30T13:05:28.366Z,100520.61
2022-10-30T13:07:32.728Z,100518.42
2022-10-30T13:09:37.203Z,100516.83
2022-10-30T13:11:41.550Z,100513.41
2022-10-30T13:13:45.902Z,100513.24
2022-10-30T13:15:50.281Z,100512.72
2022-10-30T13:17:54.678Z,100509.17
2022-10-30T13:19:59.377Z,100506.18
2022-10-30T13:22:03.785Z,100510.38
2022-10-30T13:24:08.135Z,100506.78
2022-10-30T13:26:12.503Z,100507.51
2022-10-30T13:28:16.884Z,100503.64
2022-10-30T13:30:21.253Z,100499.78
2022-10-30T13:32:25.677Z,100501.52
2022-10-30T13:34:30.029Z,100498.63
2022-10-30T13:36:34.600Z,100497.77
2022-10-30T13:38:39.173Z,100498.38
2022-10-30T13:40:43.567Z,100500.63
2022-10-30T13:42:47.942Z,100500.39
2022-10-30T13:44:52.287Z,100497.91
2022-10-30T13:46:56.679Z,100496.67
2022-10-30T13:49:01.067Z,100498.81
2022-10-30T13:51:05.425Z,100498.74
2022-10-30T13:53:09.768Z,100494.09
2022-10-30T13:55:14.145Z,100495.41
2022-10-30T13:57:18.502Z,100489.03
2022-10-30T13:59:22.875Z,100486.34
2022-10-30T14:01:27.498Z,100485.49
2022-10-30T14:03:32.163Z,100483.78
2022-10-30T14:05:36.613Z,100482.13
2022-10-30T14:07:41.042Z,100483.7
2022-10-30T14:09:45.512Z,100483.08
2022-10-30T14:11:49.908Z,100482.14
2022-10-30T14:13:54.420Z,100481.81
2022-10-30T14:15:58.827Z,100485.13
2022-10-30T14:18:03.304Z,100482.45
2022-10-30T14:20:14.740Z,100478.86
2022-10-30T14:22:19.176Z,100480.18
2022-10-30T14:24:23.835Z,100479.63
2022-10-30T14:26:28.257Z,100482.44
2022-10-30T14:28:32.705Z,100480.73
2022-10-30T14:30:37.081Z,100477.34
2022-10-30T14:32:41.538Z,100476.68
2022-10-30T14:34:46.263Z,100475
2022-10-30T14:36:50.588Z,100475.88
2022-10-30T14:38:54.952Z,100473.88
2022-10-30T14:40:59.374Z,100471.09
2022-10-30T14:43:03.713Z,100470.58
2022-10-30T14:45:08.077Z,100471.81
2022-10-30T14:47:12.431Z,100468.26
2022-10-30T14:49:16.764Z,100465.5
2022-10-30T14:51:21.110Z,100467.78
2022-10-30T14:53:25.465Z,100463.41
2022-10-30T14:55:29.854Z,100467.73
2022-10-30T14:57:34.199Z,100465.41
2022-10-30T14:59:38.569Z,100466.64
2022-10-30T15:01:43.499Z,100465.19
2022-10-30T15:03:48.289Z,100462.16
2022-10-30T15:05:52.838Z,100466.63
2022-10-30T15:07:58.131Z,100465.81
2022-10-30T15:10:03.289Z,100467.76
2022-10-30T15:12:07.742Z,100465.61
2022-10-30T15:14:39.810Z,100465.94
2022-10-30T15:16:57.617Z,100468.86
2022-10-30T15:19:01.982Z,100475.05
2022-10-30T15:21:06.333Z,100474.61
2022-10-30T15:23:10.741Z,100476.59
2022-10-30T15:25:15.077Z,100476.21
2022-10-30T15:27:19.468Z,100473.46
2022-10-30T15:29:23.830Z,100470.23
2022-10-30T15:31:28.219Z,100469.66
2022-10-30T15:33:32.578Z,100470.38
2022-10-30T15:35:36.935Z,100470.63
2022-10-30T15:37:41.310Z,100468.42
2022-10-30T15:39:45.665Z,100464.48
2022-10-30T15:41:50.097Z,100464.05
2022-10-30T15:43:54.491Z,100462.17
2022-10-30T15:45:58.860Z,100460.45
2022-10-30T15:48:04.348Z,100464.97
2022-10-30T15:50:09.035Z,100463.16
2022-10-30T15:52:13.449Z,100460.99
2022-10-30T15:54:17.821Z,100461.19
2022-10-30T15:56:22.182Z,100461.5
2022-10-30T15:58:26.566Z,100458.56
2022-10-30T16:00:30.930Z,100457.78
2022-10-30T16:02:35.600Z,100457.64
2022-10-30T16:04:40.222Z,100460.48
2022-10-30T16:06:44.576Z,100464.81
2022-10-30T16:08:48.928Z,100462.25
2022-10-30T16:10:53.291Z,100463.92
2022-10-30T16:12:58.711Z,100465.91
2022-10-30T16:15:03.797Z,100463.4
2022-10-30T16:17:08.150Z,100464.88
2022-10-30T16:19:12.485Z,100466.48
2022-10-30T16:21:16.906Z,100466.23
2022-10-30T16:23:21.312Z,100468.09
2022-10-30T16:25:25.689Z,100474.24
2022-10-30T16:27:30.046Z,100476.25
2022-10-30T16:29:34.399Z,100477.55
2022-10-30T16:31:38.781Z,100477.5
2022-10-30T16:33:43.144Z,100480.48
2022-10-30T16:35:56.027Z,100484.16
2022-10-30T16:38:00.583Z,100482.08
2022-10-30T16:40:04.960Z,100484.58
2022-10-30T16:42:09.419Z,100486.17
2022-10-30T16:44:13.846Z,100484.4
2022-10-30T16:46:18.258Z,100486.53
2022-10-30T16:48:22.649Z,100483.18
2022-10-30T16:50:27.052Z,100485.73
2022-10-30T16:52:31.556Z,100488.41
2022-10-30T16:54:36.088Z,100489.56
2022-10-30T16:56:45.376Z,100487.72
2022-10-30T16:58:50.015Z,100487.27
2022-10-30T17:00:54.612Z,100492.02
2022-10-30T17:03:00.099Z,100500.22
2022-10-30T17:05:05.261Z,100503.71
2022-10-30T17:07:09.633Z,100506.22
2022-10-30T17:09:14.031Z,100508.23
2022-10-30T17:11:18.412Z,100506.3
2022-10-30T17:13:22.787Z,100511.82
2022-10-30T17:15:27.236Z,100512.88
2022-10-30T17:17:31.606Z,100512.34
2022-10-30T17:19:36.011Z,100511.19
2022-10-30T17:21:40.357Z,100510.96
2022-10-30T17:23:44.717Z,100517.31
2022-10-30T17:25:49.091Z,100514.15
2022-10-30T17:27:53.492Z,100514.53
2022-10-30T17:29:57.841Z,100512.36
2022-10-30T17:32:02.150Z,100514.08
2022-10-30T17:34:06.501Z,100515.38
2022-10-30T17:36:10.843Z,100514.5
2022-10-30T17:38:15.317Z,100516.49
2022-10-30T17:40:19.775Z,100515.52
2022-10-30T17:42:24.131Z,100516.55
2022-10-30T17:44:28.538Z,100514.71
2022-10-30T17:46:32.925Z,100513.56
2022-10-30T17:48:37.281Z,100518.3
2022-10-30T17:50:41.674Z,100517.66
2022-10-30T17:52:46.047Z,100521.11
2022-10-30T17:54:50.465Z,100522.84
2022-10-30T17:56:54.831Z,100520.09
2022-10-30T17:58:59.191Z,100516.24
2022-10-30T18:01:03.794Z,100523.53
2022-10-30T18:03:08.291Z,100519.17
2022-10-30T18:05:12.684Z,100518.87
2022-10-30T18:07:17.059Z,100518.84
2022-10-30T18:09:21.447Z,100518.3
2022-10-30T18:11:25.836Z,100514.96
2022-10-30T18:13:30.204Z,100518.37
2022-10-30T18:15:34.629Z,100516.8
2022-10-30T18:17:39.019Z,100512.92
2022-10-30T18:19:43.418Z,100516.73
2022-10-30T18:21:47.810Z,100517.86
2022-10-30T18:23:54.245Z,100516.83
2022-10-30T18:25:59.008Z,100519.31
2022-10-30T18:28:03.634Z,100522.59
2022-10-30T18:30:08.067Z,100521.5
2022-10-30T18:32:12.513Z,100522.38
2022-10-30T18:34:16.891Z,100524.22
2022-10-30T18:36:21.271Z,100523.7
2022-10-30T18:38:25.756Z,100521.56
2022-10-30T18:40:30.168Z,100523.77
2022-10-30T18:42:34.559Z,100521.8
2022-10-30T18:44:38.965Z,100518.97
2022-10-30T18:46:43.344Z,100517.81
2022-10-30T18:48:47.704Z,100520.37
2022-10-30T18:50:52.092Z,100519.14
2022-10-30T18:52:56.433Z,100520.39
2022-10-30T18:55:00.811Z,100521.17
2022-10-30T18:57:05.160Z,100518.59
2022-10-30T18:59:09.564Z,100518.86
2022-10-30T19:01:14.233Z,100522.02
2022-10-30T19:03:19.016Z,100525.04
2022-10-30T19:05:23.401Z,100524.48
2022-10-30T19:07:27.740Z,100526.66
2022-10-30T19:09:32.162Z,100527.4
2022-10-30T19:11:44.126Z,100528.63
2022-10-30T19:13:48.751Z,100528.78
2022-10-30T19:16:00.751Z,100524.38
2022-10-30T19:18:05.323Z,100526.4
2022-10-30T19:20:09.715Z,100525.58
2022-10-30T19:22:14.076Z,100527.08
2022-10-30T19:24:18.491Z,100526.56
2022-10-30T19:26:22.826Z,100529.42
2022-10-30T19:28:27.241Z,100526.62
2022-10-30T19:30:31.593Z,100524.61
2022-10-30T19:32:35.964Z,100523.57
2022-10-30T19:34:40.310Z,100525.48
2022-10-30T19:36:44.712Z,100525.13
2022-10-30T19:38:49.029Z,100523.14
2022-10-30T19:40:53.425Z,100524.09
2022-10-30T19:42:58.550Z,100522.55
2022-10-30T19:45:03.599Z,100520.77
2022-10-30T19:47:07.939Z,100525.41
2022-10-30T19:49:12.281Z,100524.98
2022-10-30T19:51:16.690Z,100525.05
2022-10-30T19:53:21.031Z,100528.59
2022-10-30T19:55:25.423Z,100527.42
2022-10-30T19:57:29.743Z,100528.7
2022-10-30T19:59:34.160Z,100530.13
2022-10-30T20:01:38.907Z,100527.03
2022-10-30T20:03:43.488Z,100529
2022-10-30T20:05:47.888Z,100529.95
2022-10-30T20:07:52.256Z,100530.48
2022-10-30T20:09:56.634Z,100529.16
2022-10-30T20:12:01.003Z,100528.73
2022-10-30T20:14:05.372Z,100528.35
2022-10-30T20:16:09.788Z,100529.95
2022-10-30T20:18:14.176Z,100527.28
2022-10-30T20:20:18.579Z,100531.52
2022-10-30T20:22:29.008Z,100532.09
2022-10-30T20:24:33.401Z,100538.05
2022-10-30T20:26:37.803Z,100540.13
2022-10-30T20:28:42.163Z,100536.98
2022-10-30T20:30:46.692Z,100541.31
2022-10-30T20:32:51.261Z,100547.48
2022-10-30T20:34:55.742Z,100543.89
2022-10-30T20:37:00.246Z,100544.61
2022-10-30T20:39:04.589Z,100548.19
2022-10-30T20:41:08.963Z,100548.98
2022-10-30T20:43:13.293Z,100546.36
2022-10-30T20:45:17.637Z,100545.3
2022-10-30T20:47:22.020Z,100548.27
2022-10-30T20:49:26.380Z,100546.1
2022-10-30T20:51:30.756Z,100551.53
2022-10-30T20:53:35.266Z,100551.39
2022-10-30T20:55:39.911Z,100547.7
2022-10-30T20:57:44.413Z,100551.42
2022-10-30T20:59:48.754Z,100550.3
2022-10-30T21:01:53.441Z,100551.8
2022-10-30T21:04:02.745Z,100550.45
2022-10-30T21:06:07.126Z,100546.19
2022-10-30T21:08:11.506Z,100549.05
2022-10-30T21:10:15.916Z,100548.59
2022-10-30T21:12:20.313Z,100547.98
2022-10-30T21:14:24.650Z,100550.81
2022-10-30T21:16:29.031Z,100545.47
2022-10-30T21:18:33.476Z,100548.17
2022-10-30T21:20:37.850Z,100547.36
2022-10-30T21:22:42.202Z,100548.63
2022-10-30T21:24:46.594Z,100555.38
2022-10-30T21:26:50.933Z,100557.08
2022-10-30T21:28:55.357Z,100554.59
2022-10-30T21:31:00.078Z,100560.19
2022-10-30T21:33:05.216Z,100561.24
2022-10-30T21:35:09.634Z,100562.98
2022-10-30T21:37:14.011Z,100561.52
2022-10-30T21:39:18.368Z,100561.42
2022-10-30T21:41:22.749Z,100565.95
2022-10-30T21:43:27.107Z,100563.13
2022-10-30T21:45:31.505Z,100563.44
2022-10-30T21:47:35.854Z,100564.91
2022-10-30T21:49:40.244Z,100564.36
2022-10-30T21:51:44.579Z,100561.09
2022-10-30T21:53:48.916Z,100562.39
2022-10-30T21:55:53.311Z,100560.11
2022-10-30T21:57:58.304Z,100560.38
2022-10-30T22:00:07.588Z,100561.09
2022-10-30T22:02:12.176Z,100558.51
2022-10-30T22:04:16.640Z,100556.19
2022-10-30T22:06:21.021Z,100558.88
2022-10-30T22:08:25.417Z,100551.19
2022-10-30T22:10:29.784Z,100553.33
2022-10-30T22:12:34.169Z,100549.17
2022-10-30T22:14:38.538Z,100547.67
2022-10-30T22:16:42.890Z,100547.51
2022-10-30T22:18:47.267Z,100550.44
2022-10-30T22:20:51.626Z,100554.16
2022-10-30T22:22:56.015Z,100547.65
2022-10-30T22:25:00.346Z,100550.55
2022-10-30T22:27:04.735Z,100548.7
2022-10-30T22:29:09.102Z,100551.73
2022-10-30T22:31:13.459Z,100549.73
2022-10-30T22:33:17.972Z,100555.18
2022-10-30T22:35:22.326Z,100552.9
2022-10-30T22:37:26.693Z,100553.75
2022-10-30T22:39:31.096Z,100550.95
2022-10-30T22:41:39.123Z,100553.27
2022-10-30T22:43:43.460Z,100552.94
2022-10-30T22:45:47.789Z,100548.41
2022-10-30T22:47:52.469Z,100549.94
2022-10-30T22:49:56.789Z,100546.5
2022-10-30T22:52:01.157Z,100548.84
2022-10-30T22:54:05.521Z,100549.45
2022-10-30T22:56:09.856Z,100546.59
2022-10-30T22:58:14.396Z,100549.08
2022-10-30T23:00:20.389Z,100546.53
2022-10-30T23:02:24.770Z,100547.83
2022-10-30T23:04:29.118Z,100546.42
2022-10-30T23:06:33.456Z,100548.75
2022-10-30T23:08:37.841Z,100547.38
2022-10-30T23:10:42.220Z,100549.59
2022-10-30T23:12:46.567Z,100547.17
2022-10-30T23:14:50.941Z,100546.8
2022-10-30T23:16:55.279Z,100549.43
2022-10-30T23:18:59.657Z,100549.02
2022-10-30T23:21:03.985Z,100554.44
2022-10-30T23:23:08.332Z,100553.19
2022-10-30T23:25:12.702Z,100555.8
2022-10-30T23:27:17.054Z,100553.56
2022-10-30T23:29:21.451Z,100552.06
2022-10-30T23:31:25.801Z,100553.35
2022-10-30T23:33:30.181Z,100555.53
2022-10-30T23:35:34.563Z,100557.85
2022-10-30T23:37:38.903Z,100554.66
2022-10-30T23:39:43.393Z,100555.84
2022-10-30T23:41:47.731Z,100558.95
2022-10-30T23:43:52.102Z,100560.23
2022-10-30T23:45:56.499Z,100556.39
2022-10-30T23:48:01.851Z,100559.32